Time;durP1;ratioP1;P1;durP2;ratioP2;P2;SDS_P1;SDS_P2;PMS_P1;PMS_P2;Temp;Humidity;BMP_temperature;BMP_pressure;BME280_temperature;BME280_humidity;BME280_pressure;Samples;Min_cycle;Max_cycle;Signal;HPM_P1;HPM_P2
2022/05/01 00:02:01;;;;;;;6.32;5.70;;;10.50;98.50;;;;;;5100641;28;20085;-43
2022/05/01 00:04:26;;;;;;;6.78;5.97;;;10.50;98.60;;;;;;5103552;28;20027;-43
2022/05/01 00:06:52;;;;;;;6.60;5.80;;;10.40;98.60;;;;;;5097141;28;20027;-44
2022/05/01 00:09:17;;;;;;;8.55;6.28;;;10.40;98.70;;;;;;5106043;28;20460;-43
2022/05/01 00:11:43;;;;;;;7.80;6.75;;;10.40;98.90;;;;;;5095256;28;20832;-44
2022/05/01 00:14:09;;;;;;;8.05;6.20;;;10.40;98.80;;;;;;5104835;28;20524;-42
2022/05/01 00:16:37;;;;;;;7.43;5.70;;;10.40;98.80;;;;;;5094079;28;20024;-42
2022/05/01 00:19:09;;;;;;;7.22;6.05;;;10.40;98.80;;;;;;5086573;28;20878;-43
2022/05/01 00:21:36;;;;;;;6.85;6.15;;;10.40;98.80;;;;;;5098173;28;20024;-43
2022/05/01 00:24:02;;;;;;;7.53;6.53;;;10.30;98.90;;;;;;5087066;28;20035;-42
2022/05/01 00:26:28;;;;;;;7.72;5.75;;;10.30;99.10;;;;;;5098191;28;20039;-43
2022/05/01 00:28:55;;;;;;;8.10;6.90;;;10.30;99.10;;;;;;5086769;28;20020;-43
2022/05/01 00:31:20;;;;;;;8.73;6.75;;;10.30;99.20;;;;;;5097677;28;20031;-42
2022/05/01 00:36:30;;;;;;;7.78;6.47;;;10.30;99.20;;;;;;5097908;28;20026;-43
2022/05/01 00:39:05;;;;;;;7.05;6.35;;;10.30;99.20;;;;;;5087985;28;20024;-43
2022/05/01 00:41:32;;;;;;;8.65;6.40;;;10.30;99.30;;;;;;5087770;28;20024;-43
2022/05/01 00:44:19;;;;;;;7.35;5.60;;;10.30;99.30;;;;;;5086777;28;20020;-42
2022/05/01 00:46:47;;;;;;;6.80;5.70;;;10.30;99.30;;;;;;5092309;28;20020;-43
2022/05/01 00:49:21;;;;;;;7.75;6.40;;;10.30;99.30;;;;;;5104204;28;20023;-43
2022/05/01 00:51:47;;;;;;;9.43;6.72;;;10.30;99.30;;;;;;5096140;28;20044;-43
2022/05/01 00:54:15;;;;;;;7.80;5.95;;;10.30;99.30;;;;;;5103079;28;20390;-44
2022/05/01 00:56:44;;;;;;;6.05;5.38;;;10.30;99.30;;;;;;5097226;28;20024;-42
2022/05/01 00:59:10;;;;;;;7.38;6.18;;;10.30;99.40;;;;;;5101450;28;20126;-44
2022/05/01 01:01:36;;;;;;;9.30;6.65;;;10.20;99.50;;;;;;5099779;28;20540;-42
2022/05/01 01:04:03;;;;;;;8.35;6.88;;;10.20;99.50;;;;;;5098959;28;20047;-42
2022/05/01 01:06:29;;;;;;;8.70;7.28;;;10.20;99.60;;;;;;5102545;28;20115;-41
2022/05/01 01:08:55;;;;;;;6.47;5.88;;;10.20;99.60;;;;;;5096365;28;20027;-43
2022/05/01 01:11:21;;;;;;;7.93;7.13;;;10.20;99.60;;;;;;5104383;28;20063;-42
2022/05/01 01:13:47;;;;;;;9.20;6.90;;;10.10;99.60;;;;;;5094256;28;20043;-41
2022/05/01 01:16:13;;;;;;;7.35;6.55;;;10.20;99.70;;;;;;5103639;28;20550;-43
2022/05/01 01:18:39;;;;;;;7.88;6.80;;;10.10;99.70;;;;;;5097099;28;20139;-43
2022/05/01 01:21:07;;;;;;;8.95;7.05;;;10.10;99.70;;;;;;5086194;28;20032;-42
2022/05/01 01:23:33;;;;;;;9.52;6.82;;;10.10;99.70;;;;;;5097817;28;20059;-41
2022/05/01 01:25:59;;;;;;;9.45;6.22;;;10.10;99.80;;;;;;5086025;28;20028;-42
2022/05/01 01:28:25;;;;;;;6.22;5.63;;;10.10;99.70;;;;;;5098128;28;20023;-43
2022/05/01 01:33:37;;;;;;;9.77;7.60;;;10.10;99.80;;;;;;5097746;28;20047;-43
2022/05/01 01:36:03;;;;;;;9.88;7.25;;;10.10;99.80;;;;;;5086261;28;20043;-41
2022/05/01 01:38:35;;;;;;;12.38;8.10;;;10.10;99.80;;;;;;5095234;28;20122;-44
2022/05/01 01:41:08;;;;;;;7.38;6.30;;;10.10;99.90;;;;;;5089275;28;20016;-43
2022/05/01 01:43:36;;;;;;;7.63;6.43;;;10.10;99.90;;;;;;5095566;28;20028;-42
2022/05/01 01:46:01;;;;;;;8.23;7.13;;;10.20;99.90;;;;;;5103023;28;20027;-43
2022/05/01 01:48:27;;;;;;;9.77;6.90;;;10.10;99.90;;;;;;5097373;28;20050;-43
2022/05/01 01:51:03;;;;;;;9.63;7.05;;;10.10;99.90;;;;;;5100278;28;20028;-41
2022/05/01 01:53:31;;;;;;;11.40;7.78;;;10.10;99.90;;;;;;5098949;28;20024;-43
2022/05/01 01:55:57;;;;;;;9.15;6.95;;;10.20;99.90;;;;;;5100256;28;20085;-43
2022/05/01 01:58:24;;;;;;;7.53;6.80;;;10.10;99.90;;;;;;5100785;28;20445;-42
2022/05/01 02:00:49;;;;;;;11.60;8.13;;;10.10;99.90;;;;;;5097709;28;20031;-43
2022/05/01 02:03:15;;;;;;;10.23;8.02;;;10.10;99.90;;;;;;5103840;28;20034;-44
2022/05/01 02:05:41;;;;;;;8.50;7.60;;;10.10;99.90;;;;;;5093801;28;20027;-43
2022/05/01 02:08:07;;;;;;;9.35;7.40;;;10.10;99.90;;;;;;5107493;28;20022;-44
2022/05/01 02:10:33;;;;;;;11.20;7.90;;;10.10;99.90;;;;;;5098078;28;20069;-43
2022/05/01 02:13:02;;;;;;;10.63;7.28;;;10.10;99.90;;;;;;5108795;28;20035;-43
2022/05/01 02:15:30;;;;;;;11.38;8.25;;;10.10;99.90;;;;;;5096717;28;20073;-41
2022/05/01 02:17:58;;;;;;;9.02;7.20;;;10.10;99.90;;;;;;5109703;28;20474;-43
2022/05/01 02:20:24;;;;;;;9.40;7.25;;;10.10;99.90;;;;;;5095515;28;20052;-42
2022/05/01 02:22:50;;;;;;;8.32;7.18;;;10.20;99.90;;;;;;5109612;28;20031;-42
2022/05/01 02:25:15;;;;;;;10.60;8.20;;;10.10;99.90;;;;;;5096261;28;20032;-43
2022/05/01 02:27:41;;;;;;;9.95;7.47;;;10.10;99.90;;;;;;5108446;28;20085;-42
2022/05/01 02:30:08;;;;;;;7.93;6.30;;;10.10;99.90;;;;;;5098984;28;20024;-43
2022/05/01 02:32:40;;;;;;;9.20;6.88;;;10.10;99.90;;;;;;5106313;28;20055;-42
2022/05/01 02:35:07;;;;;;;8.13;6.33;;;10.10;99.90;;;;;;5099881;28;20484;-42
2022/05/01 02:37:33;;;;;;;8.80;7.20;;;10.00;99.90;;;;;;5104582;28;20114;-43
2022/05/01 02:39:59;;;;;;;9.70;6.53;;;10.00;99.90;;;;;;5102681;28;20169;-43
2022/05/01 02:42:25;;;;;;;9.23;7.57;;;9.90;99.90;;;;;;5089086;28;20149;-43
2022/05/01 02:44:50;;;;;;;10.13;8.32;;;9.90;99.90;;;;;;5091788;28;20087;-43
2022/05/01 02:47:16;;;;;;;10.20;7.60;;;9.90;99.90;;;;;;5097123;28;20032;-43
2022/05/01 02:49:42;;;;;;;10.32;8.43;;;10.00;99.90;;;;;;5089584;28;20506;-43
2022/05/01 02:52:08;;;;;;;9.50;8.02;;;9.90;99.90;;;;;;5099555;28;20032;-41
2022/05/01 02:54:34;;;;;;;7.45;6.72;;;9.90;99.90;;;;;;5088406;28;20353;-43
2022/05/01 02:57:00;;;;;;;6.75;6.13;;;9.90;99.90;;;;;;5100005;28;20467;-43
2022/05/01 02:59:25;;;;;;;8.90;8.00;;;9.90;99.90;;;;;;5087380;28;20048;-43
2022/05/01 03:01:55;;;;;;;10.55;7.53;;;9.90;99.90;;;;;;5100178;28;20494;-42
2022/05/01 03:04:21;;;;;;;8.85;7.88;;;9.90;99.90;;;;;;5087798;28;20020;-43
2022/05/01 03:06:47;;;;;;;8.60;7.28;;;9.90;99.90;;;;;;5100998;28;20019;-43
2022/05/01 03:09:12;;;;;;;8.90;6.68;;;9.90;99.90;;;;;;5087630;28;20081;-43
2022/05/01 03:11:41;;;;;;;9.68;7.55;;;9.90;99.90;;;;;;5098775;28;20066;-43
2022/05/01 03:14:09;;;;;;;8.98;7.65;;;9.80;99.90;;;;;;5089158;28;20031;-42
2022/05/01 03:16:35;;;;;;;9.35;7.78;;;9.80;99.90;;;;;;5095687;28;20070;-42
2022/05/01 03:22:10;;;;;;;8.20;7.32;;;9.80;99.90;;;;;;5036512;28;20119;-43
2022/05/01 03:24:36;;;;;;;8.63;7.47;;;9.80;99.90;;;;;;5023784;28;20033;-41
2022/05/01 03:27:03;;;;;;;9.25;7.93;;;9.70;99.90;;;;;;5064514;28;20047;-43
2022/05/01 03:29:28;;;;;;;11.23;8.50;;;9.70;99.90;;;;;;5089129;28;20143;-42
2022/05/01 03:31:54;;;;;;;10.80;8.50;;;9.70;99.90;;;;;;5094998;28;20077;-43
2022/05/01 03:34:22;;;;;;;9.40;7.40;;;9.70;99.90;;;;;;5092543;28;20029;-44
2022/05/01 03:36:48;;;;;;;9.35;7.70;;;9.60;99.90;;;;;;5092136;28;20097;-43
2022/05/01 03:39:15;;;;;;;9.80;7.88;;;9.70;99.90;;;;;;5095076;28;20132;-42
2022/05/01 03:41:41;;;;;;;10.13;8.15;;;9.60;99.90;;;;;;5091171;28;20031;-42
2022/05/01 03:44:07;;;;;;;11.02;8.20;;;9.60;99.90;;;;;;5097552;28;20024;-42
2022/05/01 03:46:38;;;;;;;8.60;7.68;;;9.60;99.90;;;;;;5105912;28;20032;-43
2022/05/01 03:49:06;;;;;;;9.85;7.47;;;9.50;99.90;;;;;;5096475;28;20016;-43
2022/05/01 03:51:33;;;;;;;10.75;8.07;;;9.60;99.90;;;;;;5104961;28;20878;-43
2022/05/01 03:54:02;;;;;;;9.82;8.30;;;9.60;99.90;;;;;;5095993;28;20020;-42
2022/05/01 03:56:29;;;;;;;8.90;7.32;;;9.50;99.90;;;;;;5106568;28;20027;-42
2022/05/01 03:58:55;;;;;;;9.95;8.43;;;9.50;99.90;;;;;;5094812;28;20043;-41
2022/05/01 04:01:21;;;;;;;9.45;7.47;;;9.50;99.90;;;;;;5107836;28;20073;-43
2022/05/01 04:03:46;;;;;;;9.30;8.20;;;9.50;99.90;;;;;;5094228;28;20027;-43
2022/05/01 04:06:14;;;;;;;9.95;8.10;;;9.50;99.90;;;;;;5106765;28;20032;-43
2022/05/01 04:08:41;;;;;;;11.15;7.95;;;9.50;99.90;;;;;;5094541;28;20020;-43
2022/05/01 04:11:07;;;;;;;10.27;8.82;;;9.40;99.90;;;;;;5107133;28;20491;-42
2022/05/01 04:13:33;;;;;;;9.30;7.93;;;9.50;99.90;;;;;;5096457;28;20020;-42
2022/05/01 04:15:59;;;;;;;9.00;7.70;;;9.40;99.90;;;;;;5104240;28;20030;-42
2022/05/01 04:18:25;;;;;;;9.23;8.32;;;9.40;99.90;;;;;;5099110;28;20488;-42
2022/05/01 04:20:52;;;;;;;9.50;8.18;;;9.40;99.90;;;;;;5101367;28;20063;-43
2022/05/01 04:23:18;;;;;;;10.27;8.55;;;9.40;99.90;;;;;;5101881;28;20050;-42
2022/05/01 04:25:44;;;;;;;9.52;7.78;;;9.40;99.90;;;;;;5098265;28;20054;-43
2022/05/01 04:28:11;;;;;;;8.90;7.50;;;9.40;99.90;;;;;;5104823;28;20011;-42
2022/05/01 04:30:37;;;;;;;10.35;7.80;;;9.40;99.90;;;;;;5095287;28;20035;-42
2022/05/01 04:33:05;;;;;;;7.90;7.10;;;9.40;99.90;;;;;;5104928;28;20024;-41
2022/05/01 04:35:37;;;;;;;9.75;7.90;;;9.40;99.90;;;;;;5095436;28;20027;-43
2022/05/01 04:38:04;;;;;;;9.52;7.60;;;9.40;99.90;;;;;;5105685;28;20046;-43
2022/05/01 04:40:35;;;;;;;8.85;7.45;;;9.30;99.90;;;;;;5094056;28;20026;-43
2022/05/01 04:43:18;;;;;;;10.23;8.27;;;9.30;99.90;;;;;;5090109;28;20028;-41
2022/05/01 04:45:49;;;;;;;8.82;7.93;;;9.30;99.90;;;;;;5095527;28;20028;-44
2022/05/01 04:48:16;;;;;;;10.20;7.43;;;9.30;99.90;;;;;;5086479;28;20119;-43
2022/05/01 04:50:41;;;;;;;8.30;7.30;;;9.30;99.90;;;;;;5097143;28;20409;-42
2022/05/01 04:53:09;;;;;;;9.80;8.77;;;9.40;99.90;;;;;;5086884;28;20028;-43
2022/05/01 04:55:37;;;;;;;8.55;6.95;;;9.40;99.90;;;;;;5097335;28;20015;-42
2022/05/01 04:58:03;;;;;;;8.80;7.68;;;9.40;99.90;;;;;;5086391;28;20098;-43
2022/05/01 05:00:29;;;;;;;8.35;7.53;;;9.50;99.90;;;;;;5098676;28;20031;-43
2022/05/01 05:02:56;;;;;;;8.57;7.68;;;9.40;99.90;;;;;;5085380;28;20020;-43
2022/05/01 05:05:23;;;;;;;8.82;7.93;;;9.40;99.90;;;;;;5096153;28;20019;-44
2022/05/01 05:07:49;;;;;;;9.20;8.13;;;9.40;99.90;;;;;;5087289;28;20016;-42
2022/05/01 05:10:16;;;;;;;9.27;8.38;;;9.50;99.90;;;;;;5093727;28;20069;-42
2022/05/01 05:12:43;;;;;;;9.35;7.65;;;9.50;99.90;;;;;;5090429;28;20028;-42
2022/05/01 05:15:10;;;;;;;9.10;7.75;;;9.50;99.90;;;;;;5091273;28;20015;-41
2022/05/01 05:17:37;;;;;;;10.55;8.73;;;9.60;99.90;;;;;;5092835;28;20069;-43
2022/05/01 05:20:04;;;;;;;8.75;7.85;;;9.60;99.90;;;;;;5089147;28;20150;-43
2022/05/01 05:22:30;;;;;;;10.88;8.50;;;9.70;99.90;;;;;;5093485;28;20074;-42
2022/05/01 05:24:56;;;;;;;9.57;7.97;;;9.70;99.90;;;;;;5087568;28;20056;-43
2022/05/01 05:27:25;;;;;;;9.57;8.32;;;9.70;99.90;;;;;;5097002;28;20039;-42
2022/05/01 05:29:55;;;;;;;9.90;8.25;;;9.80;99.90;;;;;;5086830;28;20047;-42
2022/05/01 05:32:21;;;;;;;9.30;7.70;;;9.90;99.90;;;;;;5096938;28;20776;-44
2022/05/01 05:34:47;;;;;;;11.52;7.88;;;9.90;99.90;;;;;;5086290;28;20158;-43
2022/05/01 05:37:14;;;;;;;9.88;8.77;;;10.00;99.90;;;;;;5096876;28;20095;-43
2022/05/01 05:39:39;;;;;;;9.75;7.88;;;10.00;99.90;;;;;;5085896;28;20024;-43
2022/05/01 05:42:06;;;;;;;10.30;8.73;;;10.10;99.90;;;;;;5093076;28;20142;-43
2022/05/01 05:44:31;;;;;;;10.55;8.45;;;10.20;99.90;;;;;;5088596;28;20020;-44
2022/05/01 05:46:57;;;;;;;9.90;8.38;;;10.30;99.90;;;;;;5101946;28;20489;-42
2022/05/01 05:49:22;;;;;;;10.18;9.18;;;10.30;99.90;;;;;;5090326;28;20033;-42
2022/05/01 05:51:48;;;;;;;10.73;8.77;;;10.40;99.90;;;;;;5097971;28;20498;-43
2022/05/01 05:54:13;;;;;;;11.02;8.90;;;10.50;99.90;;;;;;5093011;28;20020;-42
2022/05/01 05:56:39;;;;;;;9.82;7.75;;;10.50;99.90;;;;;;5096396;28;20030;-42
2022/05/01 05:59:04;;;;;;;9.70;8.25;;;10.60;99.90;;;;;;5094972;28;20127;-42
2022/05/01 06:01:30;;;;;;;9.85;7.95;;;10.60;99.90;;;;;;5092983;28;20036;-42
2022/05/01 06:03:55;;;;;;;7.82;7.00;;;10.60;99.90;;;;;;5098578;28;20443;-43
2022/05/01 06:06:21;;;;;;;9.13;7.72;;;10.70;99.90;;;;;;5089843;28;20466;-44
2022/05/01 06:08:46;;;;;;;10.25;8.20;;;10.70;99.90;;;;;;5100991;28;20031;-43
2022/05/01 06:11:12;;;;;;;10.65;8.48;;;10.80;99.90;;;;;;5090696;28;20039;-43
2022/05/01 06:13:37;;;;;;;9.45;8.35;;;10.90;99.90;;;;;;5100483;28;20403;-43
2022/05/01 06:16:03;;;;;;;9.63;7.57;;;10.90;99.90;;;;;;5089379;28;20028;-43
2022/05/01 06:18:29;;;;;;;10.10;8.75;;;11.00;99.90;;;;;;5101168;28;20044;-42
2022/05/01 06:20:55;;;;;;;10.30;8.10;;;11.10;99.90;;;;;;5089188;28;20056;-43
2022/05/01 06:23:24;;;;;;;9.93;8.40;;;11.10;99.90;;;;;;5101993;28;20023;-42
2022/05/01 06:25:50;;;;;;;10.43;8.45;;;11.20;99.90;;;;;;5088552;28;20508;-43
2022/05/01 06:28:16;;;;;;;9.55;8.18;;;11.30;99.90;;;;;;5100760;28;20052;-41
2022/05/01 06:30:45;;;;;;;10.00;8.13;;;11.40;99.90;;;;;;5089979;28;20040;-42
2022/05/01 06:33:13;;;;;;;10.10;8.20;;;11.50;99.90;;;;;;5097455;28;20028;-42
2022/05/01 06:35:39;;;;;;;9.45;7.57;;;11.60;99.90;;;;;;5091633;28;20028;-41
2022/05/01 06:38:04;;;;;;;9.55;7.90;;;11.60;99.90;;;;;;5096598;28;20028;-42
2022/05/01 06:40:30;;;;;;;10.73;8.00;;;11.70;99.90;;;;;;5093379;28;20024;-43
2022/05/01 06:42:55;;;;;;;8.75;7.85;;;11.80;99.90;;;;;;5093984;28;20092;-41
2022/05/01 06:45:21;;;;;;;11.45;8.30;;;11.80;99.90;;;;;;5096543;28;20046;-42
2022/05/01 06:47:47;;;;;;;9.98;7.95;;;11.90;99.90;;;;;;5089451;28;20383;-42
2022/05/01 06:50:12;;;;;;;10.07;8.35;;;12.00;99.90;;;;;;5099942;28;20098;-44
2022/05/01 06:52:38;;;;;;;10.90;8.27;;;12.10;99.90;;;;;;5089537;28;20801;-43
2022/05/01 06:55:04;;;;;;;11.23;8.15;;;12.10;99.90;;;;;;5098945;28;20822;-43
2022/05/01 06:57:30;;;;;;;8.93;7.85;;;12.20;99.90;;;;;;5087875;28;20034;-44
2022/05/01 06:59:55;;;;;;;10.35;8.25;;;12.30;99.90;;;;;;5101012;28;20020;-41
2022/05/01 07:02:22;;;;;;;9.63;8.50;;;12.40;99.90;;;;;;5083958;28;20047;-46
2022/05/01 07:04:48;;;;;;;9.10;8.13;;;12.40;99.90;;;;;;5099259;28;20035;-42
2022/05/01 07:07:13;;;;;;;11.60;8.20;;;12.50;99.90;;;;;;5087057;28;20376;-44
2022/05/01 07:09:39;;;;;;;9.63;8.10;;;12.60;99.90;;;;;;5098097;28;20756;-43
2022/05/01 07:12:06;;;;;;;9.38;8.25;;;12.60;99.90;;;;;;5087976;28;20502;-42
2022/05/01 07:14:32;;;;;;;6.90;6.20;;;12.60;99.90;;;;;;5095360;28;20034;-44
2022/05/01 07:16:57;;;;;;;10.07;7.93;;;12.60;99.80;;;;;;5090856;28;20024;-41
2022/05/01 07:19:23;;;;;;;7.72;6.90;;;12.50;99.80;;;;;;5093473;28;20129;-43
2022/05/01 07:21:49;;;;;;;8.93;8.02;;;12.50;99.90;;;;;;5091666;28;20051;-43
2022/05/01 07:24:14;;;;;;;8.77;7.78;;;12.50;99.90;;;;;;5091246;28;20012;-43
2022/05/01 07:26:40;;;;;;;11.48;8.52;;;12.50;99.90;;;;;;5095424;28;20020;-43
2022/05/01 07:29:05;;;;;;;9.80;8.73;;;12.60;99.80;;;;;;5088148;28;20472;-43
2022/05/01 07:31:31;;;;;;;9.68;7.95;;;12.70;99.90;;;;;;5097228;28;20170;-43
2022/05/01 07:33:57;;;;;;;8.73;7.60;;;12.80;99.60;;;;;;5087972;28;20026;-42
2022/05/01 07:36:23;;;;;;;8.25;7.45;;;12.90;99.50;;;;;;5097634;28;20035;-44
2022/05/01 07:38:49;;;;;;;9.02;7.95;;;12.90;99.30;;;;;;5087181;28;20020;-43
2022/05/01 07:41:18;;;;;;;8.68;7.22;;;13.00;99.20;;;;;;5099435;28;20036;-43
2022/05/01 07:43:47;;;;;;;10.00;8.43;;;13.00;99.10;;;;;;5106641;28;20027;-42
2022/05/01 07:46:13;;;;;;;9.30;8.20;;;13.00;99.10;;;;;;5093934;28;20111;-42
2022/05/01 07:48:38;;;;;;;8.15;7.30;;;13.00;99.00;;;;;;5106330;28;20102;-43
2022/05/01 07:51:04;;;;;;;8.88;6.97;;;13.00;99.00;;;;;;5094076;28;20877;-42
2022/05/01 07:53:31;;;;;;;8.32;7.53;;;13.10;99.00;;;;;;5105701;28;20027;-43
2022/05/01 07:55:57;;;;;;;10.55;8.30;;;13.10;98.80;;;;;;5096854;28;20042;-43
2022/05/01 07:58:23;;;;;;;8.73;6.60;;;13.10;98.70;;;;;;5102171;28;20067;-44
2022/05/01 08:00:49;;;;;;;8.18;7.38;;;13.20;98.70;;;;;;5099838;28;20047;-43
2022/05/01 08:05:59;;;;;;;7.72;6.93;;;13.30;98.30;;;;;;5099206;28;20067;-43
2022/05/01 08:08:33;;;;;;;9.32;8.32;;;13.30;98.20;;;;;;5100358;28;20051;-44
2022/05/01 08:11:03;;;;;;;9.57;7.55;;;13.40;98.10;;;;;;5099860;28;20071;-42
2022/05/01 08:13:32;;;;;;;7.57;6.88;;;13.40;98.00;;;;;;5099408;28;20569;-43
2022/05/01 08:15:58;;;;;;;8.40;7.43;;;13.40;97.90;;;;;;5103193;28;20059;-42
2022/05/01 08:21:08;;;;;;;7.85;7.00;;;13.40;97.80;;;;;;5103898;28;20039;-43
2022/05/01 08:23:38;;;;;;;6.60;6.00;;;13.50;97.70;;;;;;5097636;28;20024;-43
2022/05/01 08:26:06;;;;;;;7.38;6.47;;;13.60;97.80;;;;;;5100383;28;20470;-42
2022/05/01 08:28:36;;;;;;;7.22;6.53;;;13.60;97.50;;;;;;5095554;28;20024;-42
2022/05/01 08:31:03;;;;;;;6.93;5.97;;;13.70;97.50;;;;;;5105505;28;20028;-43
2022/05/01 08:33:29;;;;;;;6.55;5.95;;;13.80;97.40;;;;;;5094098;28;20104;-43
2022/05/01 08:35:55;;;;;;;7.15;6.45;;;13.90;97.20;;;;;;5105334;28;20047;-44
2022/05/01 08:38:21;;;;;;;7.63;6.75;;;14.00;97.10;;;;;;5095429;28;20043;-43
2022/05/01 08:40:48;;;;;;;9.25;7.18;;;14.10;97.00;;;;;;5106000;28;20124;-42
2022/05/01 08:43:19;;;;;;;12.25;8.05;;;14.20;96.70;;;;;;5093551;28;20028;-43
2022/05/01 08:45:48;;;;;;;7.35;6.65;;;14.40;96.40;;;;;;5106629;28;20027;-43
2022/05/01 08:48:18;;;;;;;7.82;6.63;;;14.50;96.40;;;;;;5093081;28;20682;-45
2022/05/01 08:50:45;;;;;;;5.72;5.22;;;14.70;96.30;;;;;;5106374;28;20038;-43
2022/05/01 08:53:12;;;;;;;8.55;6.80;;;14.90;96.20;;;;;;5093416;28;20483;-43
2022/05/01 08:55:38;;;;;;;8.00;6.60;;;15.00;95.60;;;;;;5106068;28;20024;-43
2022/05/01 08:58:05;;;;;;;8.35;7.25;;;15.00;95.20;;;;;;5096086;28;20063;-43
2022/05/01 09:00:31;;;;;;;8.48;6.47;;;15.00;94.90;;;;;;5102954;28;20069;-43
2022/05/01 09:02:56;;;;;;;9.27;7.30;;;15.00;95.00;;;;;;5099214;28;20040;-43
2022/05/01 09:05:22;;;;;;;8.60;6.75;;;14.90;94.40;;;;;;5101329;28;20035;-46
2022/05/01 09:07:48;;;;;;;8.48;6.07;;;14.90;94.60;;;;;;5100648;28;20475;-43
2022/05/01 09:10:14;;;;;;;7.72;5.65;;;14.90;94.50;;;;;;5098509;28;20043;-43
2022/05/01 09:12:50;;;;;;;7.45;5.70;;;14.90;94.30;;;;;;5104352;28;20475;-43
2022/05/01 09:15:36;;;;;;;8.70;6.53;;;14.90;94.30;;;;;;5096785;28;20075;-43
2022/05/01 09:18:05;;;;;;;5.53;4.85;;;14.90;94.10;;;;;;5102327;28;20012;-43
2022/05/01 09:20:38;;;;;;;5.75;5.03;;;14.90;94.20;;;;;;5096890;28;20146;-44
2022/05/01 09:23:05;;;;;;;6.20;4.97;;;14.80;94.30;;;;;;5101960;28;20045;-43
2022/05/01 09:25:32;;;;;;;6.07;5.00;;;14.80;94.40;;;;;;5095804;28;20016;-42
2022/05/01 09:28:00;;;;;;;5.82;5.22;;;14.80;94.50;;;;;;5105176;28;20031;-43
2022/05/01 09:30:38;;;;;;;5.32;4.82;;;14.70;94.50;;;;;;5094832;28;20042;-42
2022/05/01 09:33:04;;;;;;;8.20;5.13;;;14.70;94.40;;;;;;5104722;28;20035;-44
2022/05/01 09:35:34;;;;;;;6.30;5.00;;;14.70;94.50;;;;;;5093582;28;20122;-42
2022/05/01 09:38:13;;;;;;;5.95;5.35;;;14.70;94.50;;;;;;5105046;28;20395;-42
2022/05/01 09:40:39;;;;;;;6.00;5.20;;;14.70;94.40;;;;;;5094912;28;20032;-43
2022/05/01 09:43:04;;;;;;;6.43;5.60;;;14.70;94.50;;;;;;5090975;28;20385;-44
2022/05/01 09:45:32;;;;;;;5.80;5.20;;;14.70;94.40;;;;;;5097593;28;20027;-43
2022/05/01 09:47:57;;;;;;;5.35;4.82;;;14.60;94.30;;;;;;5084652;28;20032;-43
2022/05/01 09:50:40;;;;;;;7.10;5.13;;;14.60;94.20;;;;;;5097289;28;20035;-43
2022/05/01 09:53:06;;;;;;;5.97;4.95;;;14.70;94.20;;;;;;5086357;28;20051;-43
2022/05/01 09:55:31;;;;;;;5.72;5.07;;;14.70;94.10;;;;;;5098032;28;20115;-43
2022/05/01 09:58:03;;;;;;;5.70;4.82;;;14.70;94.00;;;;;;5085383;28;20135;-43
2022/05/01 10:00:40;;;;;;;6.72;5.30;;;14.70;93.90;;;;;;5097886;28;20028;-43
2022/05/01 10:03:28;;;;;;;7.53;5.90;;;14.60;93.90;;;;;;5085281;28;20067;-42
2022/05/01 10:05:56;;;;;;;6.15;4.70;;;14.70;93.90;;;;;;5098214;28;20489;-43
2022/05/01 10:08:25;;;;;;;5.30;4.80;;;14.60;93.90;;;;;;5085241;28;20507;-44
2022/05/01 10:10:57;;;;;;;5.38;4.70;;;14.50;94.00;;;;;;5097405;28;20127;-43
2022/05/01 10:13:26;;;;;;;5.75;5.00;;;14.50;94.10;;;;;;5085418;28;20020;-45
2022/05/01 10:15:53;;;;;;;6.68;5.10;;;14.50;94.00;;;;;;5095131;28;20045;-43
2022/05/01 10:18:19;;;;;;;5.88;5.10;;;14.60;93.90;;;;;;5084748;28;20482;-42
2022/05/01 10:20:44;;;;;;;6.60;4.85;;;14.70;93.70;;;;;;5094949;28;20043;-43
2022/05/01 10:23:12;;;;;;;5.50;4.80;;;14.70;93.50;;;;;;5088672;28;20039;-42
2022/05/01 10:25:44;;;;;;;6.90;5.50;;;14.60;93.40;;;;;;5090645;28;20023;-43
2022/05/01 10:28:30;;;;;;;6.45;5.85;;;14.60;93.50;;;;;;5091889;28;20017;-42
2022/05/01 10:34:59;;;;;;;6.85;5.65;;;14.70;93.30;;;;;;5068859;28;20639;-42
2022/05/01 10:37:43;;;;;;;7.53;5.05;;;14.70;93.00;;;;;;5096682;28;20050;-41
2022/05/01 10:40:09;;;;;;;6.20;5.43;;;14.70;93.00;;;;;;5090253;28;20028;-42
2022/05/01 10:42:38;;;;;;;6.20;4.97;;;14.60;93.10;;;;;;5104818;28;20439;-42
2022/05/01 10:45:25;;;;;;;5.90;5.30;;;14.50;93.00;;;;;;5109295;28;20019;-43
2022/05/01 10:47:52;;;;;;;6.30;4.95;;;14.50;93.30;;;;;;5097535;28;20463;-42
2022/05/01 10:50:22;;;;;;;5.50;4.80;;;14.60;93.10;;;;;;5108629;28;20023;-40
2022/05/01 10:53:12;;;;;;;5.57;5.07;;;14.60;93.00;;;;;;5096430;28;20039;-41
2022/05/01 10:55:52;;;;;;;4.97;4.22;;;14.60;92.90;;;;;;5107082;28;20024;-43
2022/05/01 10:58:21;;;;;;;4.65;4.20;;;14.60;92.90;;;;;;5097571;28;20048;-43
2022/05/01 11:00:54;;;;;;;5.97;5.38;;;14.70;92.80;;;;;;5106338;28;20039;-43
2022/05/01 11:03:32;;;;;;;5.28;4.78;;;14.80;92.60;;;;;;5097191;28;20023;-43
2022/05/01 11:06:04;;;;;;;6.63;5.50;;;14.90;92.50;;;;;;5108248;28;20012;-43
2022/05/01 11:08:36;;;;;;;6.57;5.30;;;15.00;92.50;;;;;;5095359;28;20059;-42
2022/05/01 11:11:07;;;;;;;5.82;4.82;;;15.00;92.10;;;;;;5108276;28;20057;-43
2022/05/01 11:13:38;;;;;;;6.05;4.63;;;15.00;92.10;;;;;;5095258;28;20468;-44
2022/05/01 11:16:05;;;;;;;6.53;5.32;;;15.00;92.10;;;;;;5088710;28;20028;-42
2022/05/01 11:18:40;;;;;;;5.88;4.97;;;15.10;92.00;;;;;;5100669;28;20088;-43
2022/05/01 11:21:24;;;;;;;5.10;4.60;;;15.20;91.90;;;;;;5088273;28;20073;-43
2022/05/01 11:23:59;;;;;;;6.25;4.90;;;15.30;91.80;;;;;;5097053;28;20061;-42
2022/05/01 11:26:25;;;;;;;8.00;5.40;;;15.40;91.50;;;;;;5108214;28;20046;-42
2022/05/01 11:28:56;;;;;;;6.32;4.70;;;15.40;91.30;;;;;;5095446;28;20017;-43
2022/05/01 11:31:40;;;;;;;5.20;4.70;;;15.60;91.20;;;;;;5108217;28;20031;-43
2022/05/01 11:34:24;;;;;;;5.28;4.70;;;15.60;91.00;;;;;;5095291;28;20035;-43
2022/05/01 11:37:06;;;;;;;4.60;4.20;;;15.70;90.90;;;;;;5107324;28;20023;-44
2022/05/01 11:39:49;;;;;;;4.13;3.72;;;15.90;90.70;;;;;;5095786;28;20024;-43
2022/05/01 11:42:27;;;;;;;7.35;4.75;;;16.00;90.50;;;;;;5087828;28;20040;-43
2022/05/01 11:45:00;;;;;;;5.53;4.82;;;16.10;90.20;;;;;;5099450;28;20483;-43
2022/05/01 11:47:27;;;;;;;5.10;4.20;;;16.30;89.80;;;;;;5089491;28;20047;-43
2022/05/01 11:49:53;;;;;;;4.88;4.47;;;16.40;89.60;;;;;;5099272;28;20027;-43
2022/05/01 11:52:19;;;;;;;5.20;4.40;;;16.40;89.00;;;;;;5087737;28;20039;-43
2022/05/01 11:54:54;;;;;;;5.75;4.38;;;16.50;88.60;;;;;;5094266;28;20050;-43
2022/05/01 12:03:05;;;;;;;4.95;4.00;;;16.80;88.00;;;;;;5105272;28;20039;-44
2022/05/01 12:05:40;;;;;;;4.95;3.40;;;16.90;87.40;;;;;;5095875;28;20027;-43
2022/05/01 12:08:05;;;;;;;4.65;4.15;;;17.00;86.70;;;;;;5105737;28;20023;-43
2022/05/01 12:10:31;;;;;;;6.50;4.10;;;17.00;86.30;;;;;;5094513;28;20043;-43
2022/05/01 12:12:57;;;;;;;5.10;4.13;;;17.00;86.00;;;;;;5107093;28;20035;-43
2022/05/01 12:15:25;;;;;;;4.60;4.18;;;17.00;85.40;;;;;;5094264;28;20032;-44
2022/05/01 12:17:51;;;;;;;5.70;5.10;;;17.10;85.00;;;;;;5106612;28;20027;-42
2022/05/01 12:20:16;;;;;;;7.38;5.50;;;17.10;83.00;;;;;;5093984;28;20029;-44
2022/05/01 12:22:43;;;;;;;5.68;4.93;;;17.10;81.30;;;;;;5106897;28;20039;-42
2022/05/01 12:25:11;;;;;;;6.00;4.55;;;17.00;81.60;;;;;;5094977;28;20070;-41
2022/05/01 12:27:41;;;;;;;7.47;5.32;;;17.00;81.50;;;;;;5105506;28;20546;-43
2022/05/01 12:30:08;;;;;;;5.97;5.35;;;17.10;81.30;;;;;;5097321;28;20149;-42
2022/05/01 12:32:36;;;;;;;6.25;5.15;;;17.20;80.70;;;;;;5103446;28;20127;-39
2022/05/01 12:35:04;;;;;;;6.30;4.32;;;17.30;80.40;;;;;;5099310;28;20012;-43
2022/05/01 12:37:34;;;;;;;5.15;4.30;;;17.20;80.20;;;;;;5101548;28;20032;-42
2022/05/01 12:40:13;;;;;;;5.72;4.22;;;17.20;80.70;;;;;;5097642;28;20031;-41
2022/05/01 12:45:37;;;;;;;4.45;4.05;;;17.30;81.00;;;;;;5096026;28;20039;-42
2022/05/01 12:48:05;;;;;;;4.47;3.92;;;17.30;81.20;;;;;;5103927;28;20015;-43
2022/05/01 12:50:31;;;;;;;5.03;3.70;;;17.40;81.10;;;;;;5098329;28;20031;-41
2022/05/01 12:53:29;;;;;;;5.30;4.38;;;17.50;80.90;;;;;;5100737;28;20027;-40
2022/05/01 12:55:57;;;;;;;6.45;4.35;;;17.60;80.90;;;;;;5090007;28;20043;-42
2022/05/01 12:58:27;;;;;;;4.25;3.55;;;17.60;80.80;;;;;;5102601;28;20487;-37
2022/05/01 13:00:53;;;;;;;5.95;3.67;;;17.70;80.80;;;;;;5098176;28;20403;-41
2022/05/01 13:03:29;;;;;;;4.07;3.58;;;17.70;80.70;;;;;;5100753;28;20027;-42
2022/05/01 13:05:58;;;;;;;3.60;3.30;;;17.80;80.30;;;;;;5099928;28;20097;-41
2022/05/01 13:08:24;;;;;;;6.07;4.55;;;17.90;80.20;;;;;;5099853;28;20070;-43
2022/05/01 13:11:13;;;;;;;4.68;4.28;;;17.90;79.60;;;;;;5101440;28;20031;-42
2022/05/01 13:14:10;;;;;;;6.63;4.07;;;17.90;78.80;;;;;;5100008;28;20038;-41
2022/05/01 13:16:44;;;;;;;6.18;4.35;;;18.00;78.90;;;;;;5095915;28;20044;-42
2022/05/01 13:19:11;;;;;;;6.20;3.22;;;17.90;78.90;;;;;;5104246;28;20152;-40
2022/05/01 13:21:39;;;;;;;4.57;3.50;;;17.90;79.10;;;;;;5097409;28;20028;-42